sensor_id;sensor_type;location;lat;lon;timestamp;P1;durP1;ratioP1;P2;durP2;ratioP2
7473;SDS011;3778;42.572;23.426;2023-12-20T00:03:19;6.47;;;3.90;;
7473;SDS011;3778;42.572;23.426;2023-12-20T00:05:44;5.32;;;3.10;;
7473;SDS011;3778;42.572;23.426;2023-12-20T00:08:10;8.30;;;4.18;;
7473;SDS011;3778;42.572;23.426;2023-12-20T00:10:35;8.10;;;5.85;;
7473;SDS011;3778;42.572;23.426;2023-12-20T00:13:01;3.47;;;2.75;;
7473;SDS011;3778;42.572;23.426;2023-12-20T00:15:26;9.82;;;5.20;;
7473;SDS011;3778;42.572;23.426;2023-12-20T00:17:51;7.00;;;3.45;;
7473;SDS011;3778;42.572;23.426;2023-12-20T00:20:17;8.13;;;5.53;;
7473;SDS011;3778;42.572;23.426;2023-12-20T00:22:42;7.60;;;5.05;;
7473;SDS011;3778;42.572;23.426;2023-12-20T00:25:08;12.50;;;5.85;;
7473;SDS011;3778;42.572;23.426;2023-12-20T00:27:33;7.25;;;4.32;;
7473;SDS011;3778;42.572;23.426;2023-12-20T00:29:58;13.00;;;6.15;;
7473;SDS011;3778;42.572;23.426;2023-12-20T00:32:25;6.28;;;3.95;;
7473;SDS011;3778;42.572;23.426;2023-12-20T00:34:50;9.18;;;4.28;;
7473;SDS011;3778;42.572;23.426;2023-12-20T00:37:15;9.27;;;6.20;;
7473;SDS011;3778;42.572;23.426;2023-12-20T00:39:41;10.52;;;7.05;;
7473;SDS011;3778;42.572;23.426;2023-12-20T00:42:07;17.13;;;9.82;;
7473;SDS011;3778;42.572;23.426;2023-12-20T00:44:32;13.60;;;7.68;;
7473;SDS011;3778;42.572;23.426;2023-12-20T00:46:58;14.27;;;7.95;;
7473;SDS011;3778;42.572;23.426;2023-12-20T00:49:23;15.80;;;7.63;;
7473;SDS011;3778;42.572;23.426;2023-12-20T00:51:48;14.50;;;8.10;;
7473;SDS011;3778;42.572;23.426;2023-12-20T00:54:15;15.95;;;9.48;;
7473;SDS011;3778;42.572;23.426;2023-12-20T00:56:41;15.40;;;7.90;;
7473;SDS011;3778;42.572;23.426;2023-12-20T00:59:06;10.07;;;6.53;;
7473;SDS011;3778;42.572;23.426;2023-12-20T01:01:32;8.63;;;5.05;;
7473;SDS011;3778;42.572;23.426;2023-12-20T01:03:58;13.68;;;7.38;;
7473;SDS011;3778;42.572;23.426;2023-12-20T01:06:23;9.65;;;5.85;;
7473;SDS011;3778;42.572;23.426;2023-12-20T01:08:49;13.55;;;6.40;;
7473;SDS011;3778;42.572;23.426;2023-12-20T01:11:14;14.10;;;7.65;;
7473;SDS011;3778;42.572;23.426;2023-12-20T01:13:39;12.93;;;7.82;;
7473;SDS011;3778;42.572;23.426;2023-12-20T01:16:05;11.80;;;6.47;;
7473;SDS011;3778;42.572;23.426;2023-12-20T01:18:30;5.57;;;2.70;;
7473;SDS011;3778;42.572;23.426;2023-12-20T01:20:56;9.93;;;6.25;;
7473;SDS011;3778;42.572;23.426;2023-12-20T01:23:21;11.43;;;7.22;;
7473;SDS011;3778;42.572;23.426;2023-12-20T01:25:48;12.65;;;6.40;;
7473;SDS011;3778;42.572;23.426;2023-12-20T01:28:13;16.50;;;9.10;;
7473;SDS011;3778;42.572;23.426;2023-12-20T01:30:38;8.90;;;5.72;;
7473;SDS011;3778;42.572;23.426;2023-12-20T01:33:04;8.45;;;5.38;;
7473;SDS011;3778;42.572;23.426;2023-12-20T01:35:29;12.35;;;6.93;;
7473;SDS011;3778;42.572;23.426;2023-12-20T01:37:55;5.72;;;3.95;;
7473;SDS011;3778;42.572;23.426;2023-12-20T01:40:23;6.30;;;4.93;;
7473;SDS011;3778;42.572;23.426;2023-12-20T01:43:01;11.93;;;6.80;;
7473;SDS011;3778;42.572;23.426;2023-12-20T01:45:30;14.73;;;6.88;;
7473;SDS011;3778;42.572;23.426;2023-12-20T01:47:56;15.25;;;5.45;;
7473;SDS011;3778;42.572;23.426;2023-12-20T01:50:23;11.45;;;7.03;;
7473;SDS011;3778;42.572;23.426;2023-12-20T01:52:49;13.50;;;6.45;;
7473;SDS011;3778;42.572;23.426;2023-12-20T01:55:17;10.20;;;5.80;;
7473;SDS011;3778;42.572;23.426;2023-12-20T01:57:44;10.27;;;5.75;;
7473;SDS011;3778;42.572;23.426;2023-12-20T02:00:11;11.52;;;7.20;;
7473;SDS011;3778;42.572;23.426;2023-12-20T02:02:39;4.57;;;3.30;;
7473;SDS011;3778;42.572;23.426;2023-12-20T02:05:08;10.52;;;5.30;;
7473;SDS011;3778;42.572;23.426;2023-12-20T02:07:34;9.07;;;4.75;;
7473;SDS011;3778;42.572;23.426;2023-12-20T02:10:00;3.85;;;3.45;;
7473;SDS011;3778;42.572;23.426;2023-12-20T02:12:26;11.35;;;7.07;;
7473;SDS011;3778;42.572;23.426;2023-12-20T02:14:52;7.68;;;5.07;;
7473;SDS011;3778;42.572;23.426;2023-12-20T02:17:19;11.43;;;5.60;;
7473;SDS011;3778;42.572;23.426;2023-12-20T02:19:45;12.48;;;6.15;;
7473;SDS011;3778;42.572;23.426;2023-12-20T02:22:11;6.72;;;4.10;;
7473;SDS011;3778;42.572;23.426;2023-12-20T02:24:37;8.23;;;5.15;;
7473;SDS011;3778;42.572;23.426;2023-12-20T02:27:02;12.18;;;4.38;;
7473;SDS011;3778;42.572;23.426;2023-12-20T02:29:29;3.25;;;2.60;;
7473;SDS011;3778;42.572;23.426;2023-12-20T02:31:54;6.50;;;3.38;;
7473;SDS011;3778;42.572;23.426;2023-12-20T02:34:20;2.55;;;2.03;;
7473;SDS011;3778;42.572;23.426;2023-12-20T02:36:45;7.13;;;3.10;;
7473;SDS011;3778;42.572;23.426;2023-12-20T02:39:10;8.05;;;3.78;;
7473;SDS011;3778;42.572;23.426;2023-12-20T02:41:36;12.88;;;6.43;;
7473;SDS011;3778;42.572;23.426;2023-12-20T02:44:01;9.02;;;3.95;;
7473;SDS011;3778;42.572;23.426;2023-12-20T02:46:27;7.35;;;3.92;;
7473;SDS011;3778;42.572;23.426;2023-12-20T02:48:52;7.32;;;4.88;;
7473;SDS011;3778;42.572;23.426;2023-12-20T02:51:18;2.47;;;2.03;;
7473;SDS011;3778;42.572;23.426;2023-12-20T02:53:43;4.65;;;3.78;;
7473;SDS011;3778;42.572;23.426;2023-12-20T02:56:08;8.73;;;4.78;;
7473;SDS011;3778;42.572;23.426;2023-12-20T02:58:34;3.38;;;2.50;;
7473;SDS011;3778;42.572;23.426;2023-12-20T03:00:59;3.75;;;3.33;;
7473;SDS011;3778;42.572;23.426;2023-12-20T03:03:24;8.02;;;4.20;;
7473;SDS011;3778;42.572;23.426;2023-12-20T03:05:50;5.53;;;2.95;;
7473;SDS011;3778;42.572;23.426;2023-12-20T03:08:15;5.18;;;3.25;;
7473;SDS011;3778;42.572;23.426;2023-12-20T03:10:41;4.32;;;3.13;;
7473;SDS011;3778;42.572;23.426;2023-12-20T03:13:06;6.88;;;3.30;;
7473;SDS011;3778;42.572;23.426;2023-12-20T03:15:31;6.97;;;3.15;;
7473;SDS011;3778;42.572;23.426;2023-12-20T03:17:57;4.93;;;3.05;;
7473;SDS011;3778;42.572;23.426;2023-12-20T03:20:24;6.60;;;3.78;;
7473;SDS011;3778;42.572;23.426;2023-12-20T03:22:51;8.93;;;3.75;;
7473;SDS011;3778;42.572;23.426;2023-12-20T03:25:16;2.22;;;2.03;;
7473;SDS011;3778;42.572;23.426;2023-12-20T03:27:42;8.85;;;5.30;;
7473;SDS011;3778;42.572;23.426;2023-12-20T03:30:07;10.18;;;5.03;;
7473;SDS011;3778;42.572;23.426;2023-12-20T03:32:33;8.90;;;4.30;;
7473;SDS011;3778;42.572;23.426;2023-12-20T03:34:58;5.97;;;3.03;;
7473;SDS011;3778;42.572;23.426;2023-12-20T03:37:23;5.22;;;3.17;;
7473;SDS011;3778;42.572;23.426;2023-12-20T03:39:49;5.53;;;3.05;;
7473;SDS011;3778;42.572;23.426;2023-12-20T03:42:14;9.95;;;3.17;;
7473;SDS011;3778;42.572;23.426;2023-12-20T03:44:40;5.03;;;1.90;;
7473;SDS011;3778;42.572;23.426;2023-12-20T03:47:05;5.55;;;3.33;;
7473;SDS011;3778;42.572;23.426;2023-12-20T03:49:31;9.45;;;5.35;;
7473;SDS011;3778;42.572;23.426;2023-12-20T03:51:57;3.50;;;2.67;;
7473;SDS011;3778;42.572;23.426;2023-12-20T03:54:22;14.13;;;7.90;;
7473;SDS011;3778;42.572;23.426;2023-12-20T03:56:47;15.73;;;6.65;;
7473;SDS011;3778;42.572;23.426;2023-12-20T03:59:13;9.65;;;5.25;;
7473;SDS011;3778;42.572;23.426;2023-12-20T04:01:42;10.20;;;6.53;;
7473;SDS011;3778;42.572;23.426;2023-12-20T04:04:08;6.45;;;3.75;;
7473;SDS011;3778;42.572;23.426;2023-12-20T04:06:33;12.27;;;5.68;;
7473;SDS011;3778;42.572;23.426;2023-12-20T04:08:59;13.20;;;7.90;;
7473;SDS011;3778;42.572;23.426;2023-12-20T04:11:24;4.53;;;3.80;;
7473;SDS011;3778;42.572;23.426;2023-12-20T04:13:50;12.60;;;7.22;;
7473;SDS011;3778;42.572;23.426;2023-12-20T04:16:15;6.90;;;4.38;;
7473;SDS011;3778;42.572;23.426;2023-12-20T04:18:41;6.93;;;4.85;;
7473;SDS011;3778;42.572;23.426;2023-12-20T04:21:06;9.25;;;5.20;;
7473;SDS011;3778;42.572;23.426;2023-12-20T04:23:32;8.27;;;5.38;;
7473;SDS011;3778;42.572;23.426;2023-12-20T04:25:57;5.53;;;2.63;;
7473;SDS011;3778;42.572;23.426;2023-12-20T04:28:23;6.90;;;3.72;;
7473;SDS011;3778;42.572;23.426;2023-12-20T04:30:48;4.07;;;2.88;;
7473;SDS011;3778;42.572;23.426;2023-12-20T04:33:14;2.45;;;2.25;;
7473;SDS011;3778;42.572;23.426;2023-12-20T04:35:39;3.30;;;2.70;;
7473;SDS011;3778;42.572;23.426;2023-12-20T04:38:06;8.45;;;4.85;;
7473;SDS011;3778;42.572;23.426;2023-12-20T04:40:31;4.13;;;2.60;;
7473;SDS011;3778;42.572;23.426;2023-12-20T04:42:57;9.27;;;4.88;;
7473;SDS011;3778;42.572;23.426;2023-12-20T04:45:22;7.10;;;3.97;;
7473;SDS011;3778;42.572;23.426;2023-12-20T04:47:49;11.43;;;6.13;;
7473;SDS011;3778;42.572;23.426;2023-12-20T04:50:15;11.40;;;6.53;;
7473;SDS011;3778;42.572;23.426;2023-12-20T04:52:41;10.27;;;6.05;;
7473;SDS011;3778;42.572;23.426;2023-12-20T04:55:06;7.00;;;3.78;;
7473;SDS011;3778;42.572;23.426;2023-12-20T04:57:31;6.32;;;3.58;;
7473;SDS011;3778;42.572;23.426;2023-12-20T04:59:57;10.02;;;5.70;;
7473;SDS011;3778;42.572;23.426;2023-12-20T05:02:22;9.20;;;5.40;;
7473;SDS011;3778;42.572;23.426;2023-12-20T05:04:48;11.45;;;6.05;;
7473;SDS011;3778;42.572;23.426;2023-12-20T05:07:13;7.25;;;4.68;;
7473;SDS011;3778;42.572;23.426;2023-12-20T05:09:39;8.23;;;4.90;;
7473;SDS011;3778;42.572;23.426;2023-12-20T05:12:04;4.18;;;3.33;;
7473;SDS011;3778;42.572;23.426;2023-12-20T05:14:30;2.78;;;1.85;;
7473;SDS011;3778;42.572;23.426;2023-12-20T05:16:56;8.32;;;5.03;;
7473;SDS011;3778;42.572;23.426;2023-12-20T05:19:21;7.05;;;4.05;;
7473;SDS011;3778;42.572;23.426;2023-12-20T05:21:47;9.35;;;5.75;;
7473;SDS011;3778;42.572;23.426;2023-12-20T05:24:12;7.55;;;4.03;;
7473;SDS011;3778;42.572;23.426;2023-12-20T05:26:37;7.82;;;4.43;;
7473;SDS011;3778;42.572;23.426;2023-12-20T05:29:03;4.70;;;2.60;;
7473;SDS011;3778;42.572;23.426;2023-12-20T05:31:28;3.22;;;2.47;;
7473;SDS011;3778;42.572;23.426;2023-12-20T05:33:54;3.10;;;2.35;;
7473;SDS011;3778;42.572;23.426;2023-12-20T05:36:19;2.55;;;1.70;;
7473;SDS011;3778;42.572;23.426;2023-12-20T05:38:44;3.45;;;2.97;;
7473;SDS011;3778;42.572;23.426;2023-12-20T05:41:10;3.10;;;1.92;;
7473;SDS011;3778;42.572;23.426;2023-12-20T05:43:36;5.95;;;3.22;;
7473;SDS011;3778;42.572;23.426;2023-12-20T05:46:01;5.57;;;3.60;;
7473;SDS011;3778;42.572;23.426;2023-12-20T05:48:27;6.78;;;3.92;;
7473;SDS011;3778;42.572;23.426;2023-12-20T05:50:52;9.52;;;3.33;;
7473;SDS011;3778;42.572;23.426;2023-12-20T05:53:18;6.00;;;2.65;;
7473;SDS011;3778;42.572;23.426;2023-12-20T05:55:43;7.20;;;3.25;;
7473;SDS011;3778;42.572;23.426;2023-12-20T05:58:08;8.43;;;4.15;;
7473;SDS011;3778;42.572;23.426;2023-12-20T06:00:34;4.00;;;3.50;;
7473;SDS011;3778;42.572;23.426;2023-12-20T06:02:59;3.83;;;2.65;;
7473;SDS011;3778;42.572;23.426;2023-12-20T06:05:24;7.38;;;3.88;;
7473;SDS011;3778;42.572;23.426;2023-12-20T06:07:50;7.00;;;3.92;;
7473;SDS011;3778;42.572;23.426;2023-12-20T06:10:16;4.85;;;2.63;;
7473;SDS011;3778;42.572;23.426;2023-12-20T06:12:41;6.25;;;3.53;;
7473;SDS011;3778;42.572;23.426;2023-12-20T06:15:07;8.32;;;5.18;;
7473;SDS011;3778;42.572;23.426;2023-12-20T06:17:32;3.25;;;2.38;;
7473;SDS011;3778;42.572;23.426;2023-12-20T06:19:59;4.07;;;2.58;;
7473;SDS011;3778;42.572;23.426;2023-12-20T06:22:25;4.65;;;2.60;;
7473;SDS011;3778;42.572;23.426;2023-12-20T06:24:51;5.53;;;3.78;;
7473;SDS011;3778;42.572;23.426;2023-12-20T06:27:17;3.03;;;1.58;;
7473;SDS011;3778;42.572;23.426;2023-12-20T06:29:42;2.63;;;1.73;;
7473;SDS011;3778;42.572;23.426;2023-12-20T06:32:09;3.67;;;1.95;;
7473;SDS011;3778;42.572;23.426;2023-12-20T06:34:35;3.38;;;1.42;;
7473;SDS011;3778;42.572;23.426;2023-12-20T06:37:00;7.13;;;2.60;;
7473;SDS011;3778;42.572;23.426;2023-12-20T06:39:26;6.13;;;2.95;;
7473;SDS011;3778;42.572;23.426;2023-12-20T06:41:51;5.63;;;2.40;;
7473;SDS011;3778;42.572;23.426;2023-12-20T06:44:16;10.18;;;7.63;;
7473;SDS011;3778;42.572;23.426;2023-12-20T06:46:42;5.35;;;3.30;;
7473;SDS011;3778;42.572;23.426;2023-12-20T06:49:08;3.58;;;2.50;;
7473;SDS011;3778;42.572;23.426;2023-12-20T06:51:33;3.38;;;1.55;;
7473;SDS011;3778;42.572;23.426;2023-12-20T06:53:59;2.22;;;1.40;;
7473;SDS011;3778;42.572;23.426;2023-12-20T06:56:25;6.68;;;3.03;;
7473;SDS011;3778;42.572;23.426;2023-12-20T06:58:50;4.25;;;2.80;;
7473;SDS011;3778;42.572;23.426;2023-12-20T07:01:16;5.93;;;3.92;;
7473;SDS011;3778;42.572;23.426;2023-12-20T07:03:41;5.30;;;2.55;;
7473;SDS011;3778;42.572;23.426;2023-12-20T07:06:07;8.27;;;3.97;;
7473;SDS011;3778;42.572;23.426;2023-12-20T07:08:33;8.38;;;5.25;;
7473;SDS011;3778;42.572;23.426;2023-12-20T07:10:58;4.00;;;2.78;;
7473;SDS011;3778;42.572;23.426;2023-12-20T07:13:24;7.40;;;4.22;;
7473;SDS011;3778;42.572;23.426;2023-12-20T07:15:50;8.65;;;5.03;;
7473;SDS011;3778;42.572;23.426;2023-12-20T07:18:15;7.18;;;3.85;;
7473;SDS011;3778;42.572;23.426;2023-12-20T07:20:41;3.53;;;2.40;;
7473;SDS011;3778;42.572;23.426;2023-12-20T07:23:06;4.47;;;2.22;;
7473;SDS011;3778;42.572;23.426;2023-12-20T07:25:31;5.47;;;3.15;;
7473;SDS011;3778;42.572;23.426;2023-12-20T07:27:57;4.25;;;2.45;;
7473;SDS011;3778;42.572;23.426;2023-12-20T07:30:23;2.83;;;2.63;;
7473;SDS011;3778;42.572;23.426;2023-12-20T07:32:49;5.25;;;2.85;;
7473;SDS011;3778;42.572;23.426;2023-12-20T07:35:15;6.90;;;2.75;;
7473;SDS011;3778;42.572;23.426;2023-12-20T07:37:41;4.50;;;3.28;;
7473;SDS011;3778;42.572;23.426;2023-12-20T07:40:06;7.15;;;4.53;;
7473;SDS011;3778;42.572;23.426;2023-12-20T07:42:33;6.88;;;3.70;;
7473;SDS011;3778;42.572;23.426;2023-12-20T07:44:58;4.05;;;2.08;;
7473;SDS011;3778;42.572;23.426;2023-12-20T07:47:24;2.80;;;2.35;;
7473;SDS011;3778;42.572;23.426;2023-12-20T07:49:50;7.75;;;5.10;;
7473;SDS011;3778;42.572;23.426;2023-12-20T07:52:19;4.55;;;3.67;;
7473;SDS011;3778;42.572;23.426;2023-12-20T07:54:45;10.73;;;4.85;;
7473;SDS011;3778;42.572;23.426;2023-12-20T07:57:11;5.57;;;2.90;;
7473;SDS011;3778;42.572;23.426;2023-12-20T07:59:36;4.60;;;2.83;;
7473;SDS011;3778;42.572;23.426;2023-12-20T08:02:02;6.03;;;2.78;;
7473;SDS011;3778;42.572;23.426;2023-12-20T08:04:27;4.95;;;3.33;;
7473;SDS011;3778;42.572;23.426;2023-12-20T08:06:52;2.28;;;2.08;;
7473;SDS011;3778;42.572;23.426;2023-12-20T08:09:18;8.23;;;3.70;;
7473;SDS011;3778;42.572;23.426;2023-12-20T08:11:47;2.25;;;1.35;;
7473;SDS011;3778;42.572;23.426;2023-12-20T08:14:13;4.75;;;3.30;;
7473;SDS011;3778;42.572;23.426;2023-12-20T08:16:39;7.18;;;3.25;;
7473;SDS011;3778;42.572;23.426;2023-12-20T08:19:04;1.52;;;1.35;;
7473;SDS011;3778;42.572;23.426;2023-12-20T08:21:29;2.42;;;2.15;;
7473;SDS011;3778;42.572;23.426;2023-12-20T08:23:55;1.60;;;1.40;;
7473;SDS011;3778;42.572;23.426;2023-12-20T08:26:20;4.45;;;2.28;;
7473;SDS011;3778;42.572;23.426;2023-12-20T08:28:48;5.78;;;2.92;;
7473;SDS011;3778;42.572;23.426;2023-12-20T08:31:16;3.95;;;2.60;;
7473;SDS011;3778;42.572;23.426;2023-12-20T08:33:46;4.03;;;3.08;;
7473;SDS011;3778;42.572;23.426;2023-12-20T08:36:13;5.70;;;2.85;;
7473;SDS011;3778;42.572;23.426;2023-12-20T08:38:38;4.93;;;3.45;;
7473;SDS011;3778;42.572;23.426;2023-12-20T08:41:04;6.45;;;3.50;;
7473;SDS011;3778;42.572;23.426;2023-12-20T08:43:33;6.68;;;3.63;;
7473;SDS011;3778;42.572;23.426;2023-12-20T08:46:00;7.53;;;3.20;;
7473;SDS011;3778;42.572;23.426;2023-12-20T08:48:25;4.07;;;3.10;;
7473;SDS011;3778;42.572;23.426;2023-12-20T08:50:50;5.15;;;2.63;;
7473;SDS011;3778;42.572;23.426;2023-12-20T08:53:17;3.03;;;1.90;;
7473;SDS011;3778;42.572;23.426;2023-12-20T08:55:43;2.75;;;2.00;;
7473;SDS011;3778;42.572;23.426;2023-12-20T08:58:09;5.40;;;3.08;;
7473;SDS011;3778;42.572;23.426;2023-12-20T09:00:34;5.68;;;2.72;;
7473;SDS011;3778;42.572;23.426;2023-12-20T09:03:01;3.72;;;2.47;;
7473;SDS011;3778;42.572;23.426;2023-12-20T09:05:27;3.03;;;1.75;;
7473;SDS011;3778;42.572;23.426;2023-12-20T09:07:53;2.00;;;1.85;;
7473;SDS011;3778;42.572;23.426;2023-12-20T09:10:18;1.08;;;0.65;;
7473;SDS011;3778;42.572;23.426;2023-12-20T09:12:47;4.75;;;2.97;;
7473;SDS011;3778;42.572;23.426;2023-12-20T09:15:14;5.18;;;2.05;;
7473;SDS011;3778;42.572;23.426;2023-12-20T09:17:40;5.55;;;2.78;;
7473;SDS011;3778;42.572;23.426;2023-12-20T09:20:06;3.30;;;1.85;;
7473;SDS011;3778;42.572;23.426;2023-12-20T09:22:33;5.53;;;3.00;;
7473;SDS011;3778;42.572;23.426;2023-12-20T09:24:59;2.50;;;1.38;;
7473;SDS011;3778;42.572;23.426;2023-12-20T09:27:25;1.20;;;0.95;;
7473;SDS011;3778;42.572;23.426;2023-12-20T09:29:50;6.63;;;3.67;;
7473;SDS011;3778;42.572;23.426;2023-12-20T09:32:15;4.40;;;2.80;;
7473;SDS011;3778;42.572;23.426;2023-12-20T09:34:41;4.85;;;1.92;;
7473;SDS011;3778;42.572;23.426;2023-12-20T09:37:07;1.67;;;1.42;;
7473;SDS011;3778;42.572;23.426;2023-12-20T09:39:32;3.35;;;2.13;;
7473;SDS011;3778;42.572;23.426;2023-12-20T09:42:02;3.72;;;2.80;;
7473;SDS011;3778;42.572;23.426;2023-12-20T09:44:29;4.22;;;1.70;;
7473;SDS011;3778;42.572;23.426;2023-12-20T09:46:56;2.05;;;1.33;;
7473;SDS011;3778;42.572;23.426;2023-12-20T09:49:22;2.83;;;2.05;;
7473;SDS011;3778;42.572;23.426;2023-12-20T09:51:48;1.65;;;1.23;;
7473;SDS011;3778;42.572;23.426;2023-12-20T09:54:18;3.83;;;2.35;;
7473;SDS011;3778;42.572;23.426;2023-12-20T09:56:45;3.55;;;2.00;;
7473;SDS011;3778;42.572;23.426;2023-12-20T09:59:11;2.47;;;1.80;;
7473;SDS011;3778;42.572;23.426;2023-12-20T10:01:38;2.83;;;2.00;;
7473;SDS011;3778;42.572;23.426;2023-12-20T10:04:05;3.63;;;2.40;;
7473;SDS011;3778;42.572;23.426;2023-12-20T10:06:36;6.25;;;2.80;;
7473;SDS011;3778;42.572;23.426;2023-12-20T10:09:01;9.60;;;3.15;;
7473;SDS011;3778;42.572;23.426;2023-12-20T10:11:27;1.30;;;1.20;;
7473;SDS011;3778;42.572;23.426;2023-12-20T10:13:58;2.65;;;1.75;;
7473;SDS011;3778;42.572;23.426;2023-12-20T10:16:26;1.30;;;0.85;;
7473;SDS011;3778;42.572;23.426;2023-12-20T10:18:52;4.97;;;2.55;;
7473;SDS011;3778;42.572;23.426;2023-12-20T10:21:18;4.60;;;2.20;;
7473;SDS011;3778;42.572;23.426;2023-12-20T10:23:44;3.38;;;2.70;;
7473;SDS011;3778;42.572;23.426;2023-12-20T10:26:10;1.23;;;1.13;;
7473;SDS011;3778;42.572;23.426;2023-12-20T10:28:44;2.20;;;1.33;;
7473;SDS011;3778;42.572;23.426;2023-12-20T10:31:09;4.10;;;2.50;;
7473;SDS011;3778;42.572;23.426;2023-12-20T10:33:35;26.60;;;11.93;;
7473;SDS011;3778;42.572;23.426;2023-12-20T10:36:00;28.55;;;13.70;;
7473;SDS011;3778;42.572;23.426;2023-12-20T10:38:25;24.17;;;12.18;;
7473;SDS011;3778;42.572;23.426;2023-12-20T10:40:54;38.55;;;16.90;;
7473;SDS011;3778;42.572;23.426;2023-12-20T10:43:26;29.35;;;13.50;;
7473;SDS011;3778;42.572;23.426;2023-12-20T10:45:53;34.92;;;14.98;;
7473;SDS011;3778;42.572;23.426;2023-12-20T10:48:19;22.27;;;11.30;;
7473;SDS011;3778;42.572;23.426;2023-12-20T10:50:47;35.88;;;16.05;;
7473;SDS011;3778;42.572;23.426;2023-12-20T10:53:13;33.67;;;16.00;;
7473;SDS011;3778;42.572;23.426;2023-12-20T10:55:39;32.38;;;15.65;;
7473;SDS011;3778;42.572;23.426;2023-12-20T10:58:08;26.88;;;11.30;;
7473;SDS011;3778;42.572;23.426;2023-12-20T11:00:35;43.47;;;18.45;;
7473;SDS011;3778;42.572;23.426;2023-12-20T11:03:08;36.83;;;16.38;;
7473;SDS011;3778;42.572;23.426;2023-12-20T11:08:20;35.22;;;14.57;;
7473;SDS011;3778;42.572;23.426;2023-12-20T11:10:51;36.35;;;15.40;;
7473;SDS011;3778;42.572;23.426;2023-12-20T11:13:31;27.17;;;14.90;;
7473;SDS011;3778;42.572;23.426;2023-12-20T11:16:13;28.75;;;14.20;;
7473;SDS011;3778;42.572;23.426;2023-12-20T11:18:38;31.92;;;15.32;;
7473;SDS011;3778;42.572;23.426;2023-12-20T11:21:05;33.42;;;14.70;;
7473;SDS011;3778;42.572;23.426;2023-12-20T11:23:33;37.53;;;16.80;;
7473;SDS011;3778;42.572;23.426;2023-12-20T11:26:00;36.88;;;16.35;;
7473;SDS011;3778;42.572;23.426;2023-12-20T11:28:27;23.38;;;10.85;;
7473;SDS011;3778;42.572;23.426;2023-12-20T11:30:55;37.03;;;16.73;;
7473;SDS011;3778;42.572;23.426;2023-12-20T11:33:23;42.63;;;18.77;;
7473;SDS011;3778;42.572;23.426;2023-12-20T11:35:49;37.92;;;18.25;;
7473;SDS011;3778;42.572;23.426;2023-12-20T11:38:15;36.25;;;17.67;;
7473;SDS011;3778;42.572;23.426;2023-12-20T11:40:41;38.35;;;16.58;;
7473;SDS011;3778;42.572;23.426;2023-12-20T11:43:07;35.60;;;16.00;;
7473;SDS011;3778;42.572;23.426;2023-12-20T11:45:33;33.17;;;17.60;;
7473;SDS011;3778;42.572;23.426;2023-12-20T11:47:59;34.05;;;17.48;;
7473;SDS011;3778;42.572;23.426;2023-12-20T11:50:27;45.40;;;22.00;;
7473;SDS011;3778;42.572;23.426;2023-12-20T11:52:53;42.30;;;21.02;;
7473;SDS011;3778;42.572;23.426;2023-12-20T11:55:20;37.05;;;16.83;;
7473;SDS011;3778;42.572;23.426;2023-12-20T11:57:46;43.90;;;22.38;;
7473;SDS011;3778;42.572;23.426;2023-12-20T12:00:12;42.70;;;20.23;;
7473;SDS011;3778;42.572;23.426;2023-12-20T12:02:38;38.70;;;17.58;;
7473;SDS011;3778;42.572;23.426;2023-12-20T12:05:04;39.47;;;19.10;;
7473;SDS011;3778;42.572;23.426;2023-12-20T12:07:30;31.58;;;15.80;;
7473;SDS011;3778;42.572;23.426;2023-12-20T12:09:56;37.03;;;18.13;;
7473;SDS011;3778;42.572;23.426;2023-12-20T12:12:22;34.17;;;17.73;;
7473;SDS011;3778;42.572;23.426;2023-12-20T12:14:48;38.85;;;19.13;;
7473;SDS011;3778;42.572;23.426;2023-12-20T12:17:14;34.95;;;16.80;;
7473;SDS011;3778;42.572;23.426;2023-12-20T12:19:40;35.22;;;18.60;;
7473;SDS011;3778;42.572;23.426;2023-12-20T12:22:13;34.90;;;16.13;;
7473;SDS011;3778;42.572;23.426;2023-12-20T12:24:40;44.05;;;19.63;;
7473;SDS011;3778;42.572;23.426;2023-12-20T12:27:06;47.38;;;23.05;;
7473;SDS011;3778;42.572;23.426;2023-12-20T12:29:32;38.28;;;17.60;;
7473;SDS011;3778;42.572;23.426;2023-12-20T12:31:58;32.30;;;17.75;;
7473;SDS011;3778;42.572;23.426;2023-12-20T12:34:24;36.45;;;19.48;;
7473;SDS011;3778;42.572;23.426;2023-12-20T12:36:52;38.40;;;18.73;;
7473;SDS011;3778;42.572;23.426;2023-12-20T12:39:18;34.00;;;19.02;;
7473;SDS011;3778;42.572;23.426;2023-12-20T12:41:43;40.97;;;19.48;;
7473;SDS011;3778;42.572;23.426;2023-12-20T12:44:09;39.08;;;19.23;;
7473;SDS011;3778;42.572;23.426;2023-12-20T12:46:34;27.08;;;13.32;;
7473;SDS011;3778;42.572;23.426;2023-12-20T12:49:00;21.13;;;10.77;;
7473;SDS011;3778;42.572;23.426;2023-12-20T12:51:25;32.67;;;18.77;;
7473;SDS011;3778;42.572;23.426;2023-12-20T12:53:51;32.70;;;17.15;;
7473;SDS011;3778;42.572;23.426;2023-12-20T12:56:16;21.00;;;11.10;;
7473;SDS011;3778;42.572;23.426;2023-12-20T12:58:42;34.35;;;18.88;;
7473;SDS011;3778;42.572;23.426;2023-12-20T13:01:07;43.30;;;19.98;;
7473;SDS011;3778;42.572;23.426;2023-12-20T13:03:33;38.33;;;19.60;;
7473;SDS011;3778;42.572;23.426;2023-12-20T13:05:59;39.70;;;20.30;;
7473;SDS011;3778;42.572;23.426;2023-12-20T13:08:25;44.10;;;21.98;;
7473;SDS011;3778;42.572;23.426;2023-12-20T13:10:50;36.55;;;19.75;;
7473;SDS011;3778;42.572;23.426;2023-12-20T13:13:16;38.67;;;18.33;;
7473;SDS011;3778;42.572;23.426;2023-12-20T13:15:41;39.47;;;18.73;;
7473;SDS011;3778;42.572;23.426;2023-12-20T13:18:07;44.08;;;21.98;;
7473;SDS011;3778;42.572;23.426;2023-12-20T13:20:32;41.80;;;19.70;;
7473;SDS011;3778;42.572;23.426;2023-12-20T13:22:58;43.22;;;21.08;;
7473;SDS011;3778;42.572;23.426;2023-12-20T13:25:24;52.85;;;25.65;;
7473;SDS011;3778;42.572;23.426;2023-12-20T13:27:50;53.13;;;26.05;;
7473;SDS011;3778;42.572;23.426;2023-12-20T13:30:16;45.35;;;21.55;;
7473;SDS011;3778;42.572;23.426;2023-12-20T13:32:41;48.15;;;21.77;;
7473;SDS011;3778;42.572;23.426;2023-12-20T13:35:07;45.10;;;22.20;;
7473;SDS011;3778;42.572;23.426;2023-12-20T13:37:32;36.17;;;17.73;;
7473;SDS011;3778;42.572;23.426;2023-12-20T13:39:58;25.58;;;8.68;;
7473;SDS011;3778;42.572;23.426;2023-12-20T13:42:23;50.20;;;23.20;;
7473;SDS011;3778;42.572;23.426;2023-12-20T13:44:48;40.67;;;19.38;;
7473;SDS011;3778;42.572;23.426;2023-12-20T13:47:14;50.53;;;23.85;;
7473;SDS011;3778;42.572;23.426;2023-12-20T13:49:39;39.63;;;20.48;;
7473;SDS011;3778;42.572;23.426;2023-12-20T13:52:05;24.52;;;12.95;;
7473;SDS011;3778;42.572;23.426;2023-12-20T13:54:30;32.60;;;16.08;;
7473;SDS011;3778;42.572;23.426;2023-12-20T13:56:56;29.70;;;16.25;;
7473;SDS011;3778;42.572;23.426;2023-12-20T13:59:22;15.02;;;8.88;;
7473;SDS011;3778;42.572;23.426;2023-12-20T14:01:48;20.05;;;9.05;;
7473;SDS011;3778;42.572;23.426;2023-12-20T14:04:15;22.98;;;10.63;;
7473;SDS011;3778;42.572;23.426;2023-12-20T14:06:40;14.02;;;6.00;;
7473;SDS011;3778;42.572;23.426;2023-12-20T14:09:06;12.65;;;7.22;;
7473;SDS011;3778;42.572;23.426;2023-12-20T14:11:31;24.45;;;12.50;;
7473;SDS011;3778;42.572;23.426;2023-12-20T14:13:56;7.25;;;4.15;;
7473;SDS011;3778;42.572;23.426;2023-12-20T14:16:23;9.23;;;5.03;;
7473;SDS011;3778;42.572;23.426;2023-12-20T14:18:49;6.32;;;3.35;;
7473;SDS011;3778;42.572;23.426;2023-12-20T14:21:16;11.65;;;6.32;;
7473;SDS011;3778;42.572;23.426;2023-12-20T14:23:42;12.05;;;7.00;;
7473;SDS011;3778;42.572;23.426;2023-12-20T14:26:08;14.40;;;6.28;;
7473;SDS011;3778;42.572;23.426;2023-12-20T14:28:39;7.10;;;2.78;;
7473;SDS011;3778;42.572;23.426;2023-12-20T14:31:06;11.02;;;5.57;;
7473;SDS011;3778;42.572;23.426;2023-12-20T14:33:31;5.97;;;2.88;;
7473;SDS011;3778;42.572;23.426;2023-12-20T14:35:57;3.90;;;2.67;;
7473;SDS011;3778;42.572;23.426;2023-12-20T14:38:22;10.05;;;5.70;;
7473;SDS011;3778;42.572;23.426;2023-12-20T14:40:48;3.08;;;2.20;;
7473;SDS011;3778;42.572;23.426;2023-12-20T14:43:13;1.90;;;1.60;;
7473;SDS011;3778;42.572;23.426;2023-12-20T14:45:39;8.57;;;3.70;;
7473;SDS011;3778;42.572;23.426;2023-12-20T14:48:04;8.05;;;3.80;;
7473;SDS011;3778;42.572;23.426;2023-12-20T14:50:30;5.68;;;2.55;;